Time;durP1;ratioP1;P1;durP2;ratioP2;P2;SDS_P1;SDS_P2;PMS_P1;PMS_P2;Temp;Humidity;BMP_temperature;BMP_pressure;BME280_temperature;BME280_humidity;BME280_pressure;Samples;Min_cycle;Max_cycle;Signal;HPM_P1;HPM_P2
2022/11/27 00:01:41;;;;;;;34.40;10.90;;;6.10;99.90;;;;;;5129229;27;20051;-77
2022/11/27 00:04:09;;;;;;;34.92;10.48;;;6.00;99.90;;;;;;5094545;28;20083;-77
2022/11/27 00:06:37;;;;;;;25.48;9.75;;;6.10;99.90;;;;;;5087190;28;20101;-77
2022/11/27 00:09:07;;;;;;;31.23;10.65;;;6.10;99.90;;;;;;5075551;28;20428;-77
2022/11/27 00:11:33;;;;;;;34.78;9.70;;;6.10;99.90;;;;;;5074643;28;20048;-77
2022/11/27 00:13:59;;;;;;;27.05;10.38;;;6.10;99.90;;;;;;5057819;28;20040;-77
2022/11/27 00:16:27;;;;;;;30.35;9.93;;;6.20;99.90;;;;;;5075623;28;20045;-77
2022/11/27 00:18:53;;;;;;;25.70;9.52;;;6.10;99.90;;;;;;5075324;28;20350;-77
2022/11/27 00:21:22;;;;;;;31.60;9.50;;;6.20;99.90;;;;;;5058047;28;20045;-76
2022/11/27 00:23:49;;;;;;;33.03;9.90;;;6.20;99.90;;;;;;5076390;28;20131;-77
2022/11/27 00:26:15;;;;;;;36.45;9.38;;;6.20;99.90;;;;;;5081237;28;20127;-76
2022/11/27 00:28:41;;;;;;;28.55;9.48;;;6.10;99.90;;;;;;5075359;28;20119;-77
2022/11/27 00:31:15;;;;;;;26.05;8.93;;;6.20;99.90;;;;;;5073501;28;20508;-77
2022/11/27 00:33:41;;;;;;;28.40;8.73;;;6.20;99.90;;;;;;5075335;28;20056;-77
2022/11/27 00:36:07;;;;;;;30.45;9.68;;;6.20;99.90;;;;;;5075005;28;20053;-77
2022/11/27 00:38:34;;;;;;;25.52;8.32;;;6.20;99.90;;;;;;5068465;28;20068;-77
2022/11/27 00:41:13;;;;;;;30.63;8.85;;;6.20;99.90;;;;;;5066604;28;20053;-77
2022/11/27 00:43:39;;;;;;;31.90;8.82;;;6.20;99.90;;;;;;5054540;28;20440;-76
2022/11/27 00:46:05;;;;;;;33.70;8.77;;;6.20;99.90;;;;;;5086799;28;20052;-77
2022/11/27 00:48:31;;;;;;;28.00;8.30;;;6.20;99.90;;;;;;5070554;28;20071;-77
2022/11/27 00:51:02;;;;;;;31.50;8.40;;;6.20;99.90;;;;;;5066709;28;20041;-77
2022/11/27 00:53:28;;;;;;;25.15;8.82;;;6.20;99.90;;;;;;5073845;28;20131;-77
2022/11/27 00:55:55;;;;;;;32.95;8.02;;;6.20;99.90;;;;;;5073755;28;20515;-77
2022/11/27 00:58:21;;;;;;;20.85;7.30;;;6.20;99.90;;;;;;5073023;28;20051;-77
2022/11/27 01:00:57;;;;;;;27.92;8.60;;;6.20;99.90;;;;;;5079516;28;20044;-77
2022/11/27 01:03:23;;;;;;;;;;;6.20;99.90;;;;;;5073532;28;20315;-76
2022/11/27 01:05:49;;;;;;;25.10;8.33;;;6.20;99.90;;;;;;5074628;28;19920;-76
2022/11/27 01:08:15;;;;;;;30.23;7.88;;;6.20;99.90;;;;;;5074214;28;20287;-76
2022/11/27 01:10:56;;;;;;;21.25;7.88;;;6.20;99.90;;;;;;5073705;28;20037;-76
2022/11/27 01:13:24;;;;;;;29.60;9.15;;;6.10;99.90;;;;;;5090285;28;20053;-76
2022/11/27 01:16:15;;;;;;;32.50;8.27;;;6.20;99.90;;;;;;5073475;28;20094;-76
2022/11/27 01:18:42;;;;;;;29.42;8.73;;;6.20;99.90;;;;;;5073625;28;20053;-77
2022/11/27 01:21:09;;;;;;;21.38;7.43;;;6.20;99.90;;;;;;5078108;28;20122;-77
2022/11/27 01:23:35;;;;;;;24.48;7.45;;;6.20;99.90;;;;;;5093268;28;20048;-76
2022/11/27 01:26:02;;;;;;;26.98;7.70;;;6.30;99.90;;;;;;5093115;28;20043;-77
2022/11/27 01:28:28;;;;;;;22.35;7.80;;;6.30;99.90;;;;;;5093244;28;20044;-76
2022/11/27 01:30:53;;;;;;;24.13;7.97;;;6.20;99.90;;;;;;5093252;28;20044;-79
2022/11/27 01:33:19;;;;;;;27.63;7.50;;;6.30;99.90;;;;;;5084000;28;20052;-76
2022/11/27 01:35:56;;;;;;;28.63;7.85;;;6.30;99.90;;;;;;5072898;28;20477;-76
2022/11/27 01:38:23;;;;;;;19.25;7.22;;;6.30;99.90;;;;;;5072963;28;20048;-76
2022/11/27 01:40:54;;;;;;;23.50;7.43;;;6.30;99.90;;;;;;5072902;28;20052;-76
2022/11/27 01:43:40;;;;;;;23.27;8.02;;;6.30;99.90;;;;;;5069126;28;20140;-76
2022/11/27 01:46:34;;;;;;;21.58;8.20;;;6.30;99.90;;;;;;5060275;28;20045;-77
2022/11/27 01:49:07;;;;;;;22.60;8.15;;;6.40;99.90;;;;;;5068472;28;20139;-76
2022/11/27 01:51:33;;;;;;;25.20;8.80;;;6.30;99.90;;;;;;5072785;28;20048;-76
2022/11/27 01:53:59;;;;;;;25.95;8.15;;;6.30;99.90;;;;;;5081973;28;20037;-76
2022/11/27 01:56:26;;;;;;;27.08;8.05;;;6.40;99.90;;;;;;5069954;28;20097;-76
2022/11/27 01:58:52;;;;;;;26.95;9.07;;;6.30;99.90;;;;;;5053724;28;20102;-76
2022/11/27 02:01:18;;;;;;;29.60;8.70;;;6.30;99.90;;;;;;5068961;28;20485;-76
2022/11/27 02:03:43;;;;;;;25.33;8.02;;;6.30;99.90;;;;;;5114831;27;20508;-76
2022/11/27 02:06:12;;;;;;;26.35;8.07;;;6.30;99.90;;;;;;5093466;28;20080;-76
2022/11/27 02:08:39;;;;;;;26.25;8.00;;;6.30;99.90;;;;;;5092043;28;20055;-76
2022/11/27 02:11:12;;;;;;;21.65;7.75;;;6.30;99.90;;;;;;5092610;28;20403;-77
2022/11/27 02:14:01;;;;;;;22.85;8.15;;;6.30;99.90;;;;;;5092243;28;20059;-76
2022/11/27 02:16:37;;;;;;;25.63;7.88;;;6.30;99.90;;;;;;5063482;28;20051;-76
2022/11/27 02:19:15;;;;;;;;;;;6.30;99.90;;;;;;5127016;27;20381;-76
2022/11/27 02:21:53;;;;;;;25.30;6.90;;;6.30;99.90;;;;;;5092784;28;19969;-76
2022/11/27 02:24:21;;;;;;;27.38;6.95;;;6.30;99.90;;;;;;5075356;28;20048;-78
2022/11/27 02:26:50;;;;;;;24.80;7.40;;;6.30;99.90;;;;;;5092446;28;20044;-76
2022/11/27 02:29:22;;;;;;;25.45;8.02;;;6.30;99.90;;;;;;5093291;28;20040;-76
2022/11/27 02:31:59;;;;;;;26.15;7.68;;;6.30;99.90;;;;;;5093687;28;20052;-76
2022/11/27 02:34:44;;;;;;;23.60;7.13;;;6.30;99.90;;;;;;5091659;28;20052;-76
2022/11/27 02:37:25;;;;;;;25.73;7.03;;;6.30;99.90;;;;;;5126389;27;20056;-76
2022/11/27 02:39:59;;;;;;;22.63;6.97;;;6.30;99.90;;;;;;5093357;28;20081;-76
2022/11/27 02:42:28;;;;;;;19.70;6.20;;;6.30;99.90;;;;;;5075468;28;20499;-76
2022/11/27 02:45:08;;;;;;;19.90;6.03;;;6.40;99.90;;;;;;5093127;28;20057;-76
2022/11/27 02:47:35;;;;;;;22.85;6.30;;;6.40;99.90;;;;;;5092442;28;20135;-76
2022/11/27 02:50:02;;;;;;;22.30;7.25;;;6.40;99.90;;;;;;5075607;28;20100;-76
2022/11/27 02:52:30;;;;;;;17.08;6.07;;;6.40;99.90;;;;;;5093103;28;20144;-76
2022/11/27 02:54:59;;;;;;;23.85;6.20;;;6.40;99.90;;;;;;5081843;28;20072;-76
2022/11/27 02:57:27;;;;;;;20.42;6.38;;;6.40;99.90;;;;;;5072848;28;20130;-76
2022/11/27 02:59:54;;;;;;;28.48;7.60;;;6.30;99.90;;;;;;5071667;28;20174;-76
2022/11/27 03:02:29;;;;;;;20.02;6.43;;;6.40;99.90;;;;;;5072835;28;20052;-76
2022/11/27 03:04:58;;;;;;;19.50;6.07;;;6.40;99.90;;;;;;5085458;28;20045;-76
2022/11/27 03:07:39;;;;;;;18.63;5.60;;;6.30;99.90;;;;;;5070857;28;20049;-76
2022/11/27 03:10:16;;;;;;;20.40;6.93;;;6.40;99.90;;;;;;5071919;28;20044;-76
2022/11/27 03:12:42;;;;;;;22.00;5.65;;;6.40;99.90;;;;;;5072167;28;20472;-76
2022/11/27 03:15:08;;;;;;;21.15;6.10;;;6.40;99.90;;;;;;5073659;28;20052;-76
2022/11/27 03:17:49;;;;;;;18.67;5.78;;;6.30;99.90;;;;;;5053958;28;20068;-78
2022/11/27 03:20:42;;;;;;;18.27;5.30;;;6.40;99.90;;;;;;5056390;28;20056;-77
2022/11/27 03:23:07;;;;;;;19.45;5.70;;;6.40;99.90;;;;;;5073360;28;20098;-76
2022/11/27 03:25:33;;;;;;;13.20;5.45;;;6.40;99.90;;;;;;5075264;28;20041;-76
2022/11/27 03:28:03;;;;;;;22.10;6.38;;;6.40;99.90;;;;;;5075257;28;20055;-76
2022/11/27 03:30:29;;;;;;;15.82;5.50;;;6.40;99.90;;;;;;5109028;28;20056;-76
2022/11/27 03:32:55;;;;;;;21.50;5.88;;;6.40;99.90;;;;;;5108837;28;20060;-76
2022/11/27 03:35:24;;;;;;;21.77;6.13;;;6.30;99.90;;;;;;5092279;28;20067;-76
2022/11/27 03:37:51;;;;;;;23.40;6.40;;;6.40;99.90;;;;;;5077550;28;20124;-76
2022/11/27 03:40:18;;;;;;;19.95;6.07;;;6.40;99.90;;;;;;5071936;28;20518;-77
2022/11/27 03:43:11;;;;;;;19.48;6.25;;;6.40;99.90;;;;;;5055991;28;20053;-76
2022/11/27 03:45:52;;;;;;;16.25;5.82;;;6.40;99.90;;;;;;5101636;28;20040;-76
2022/11/27 03:48:49;;;;;;;13.75;5.63;;;6.40;99.90;;;;;;5063945;28;20044;-77
2022/11/27 03:52:03;;;;;;;19.25;5.80;;;6.40;99.90;;;;;;5056056;28;20052;-85
2022/11/27 03:54:53;;;;;;;22.63;5.97;;;6.40;99.90;;;;;;5057612;28;20110;-77
2022/11/27 03:57:34;;;;;;;16.25;5.70;;;6.40;99.90;;;;;;5067869;28;20454;-77
2022/11/27 04:00:04;;;;;;;17.58;6.15;;;6.40;99.90;;;;;;5075816;28;20150;-77
2022/11/27 04:02:45;;;;;;;17.90;6.35;;;6.40;99.90;;;;;;5074671;28;20048;-77
2022/11/27 04:05:12;;;;;;;22.77;5.72;;;6.30;99.90;;;;;;5074880;28;20041;-77
2022/11/27 04:07:39;;;;;;;13.98;5.57;;;6.30;99.90;;;;;;5075838;28;20060;-77
2022/11/27 04:10:05;;;;;;;19.35;6.70;;;6.30;99.90;;;;;;5075805;28;20049;-76
2022/11/27 04:12:31;;;;;;;19.20;6.93;;;6.30;99.90;;;;;;5074562;28;20064;-76
2022/11/27 04:14:57;;;;;;;19.70;6.43;;;6.30;99.90;;;;;;5076036;28;20494;-77
2022/11/27 04:17:22;;;;;;;19.58;6.25;;;6.30;99.90;;;;;;5077837;28;20048;-76
2022/11/27 04:19:48;;;;;;;14.32;6.53;;;6.20;99.90;;;;;;5081721;28;20045;-76
2022/11/27 04:22:14;;;;;;;15.52;6.90;;;6.20;99.90;;;;;;5054482;28;20150;-77
2022/11/27 04:24:39;;;;;;;20.05;7.13;;;6.20;99.90;;;;;;5055039;28;20132;-76
2022/11/27 04:27:05;;;;;;;17.40;6.38;;;6.20;99.90;;;;;;5084539;28;20048;-76
2022/11/27 04:29:31;;;;;;;22.85;6.93;;;6.20;99.90;;;;;;5075278;28;20083;-76
2022/11/27 04:31:56;;;;;;;21.83;7.05;;;6.20;99.90;;;;;;5090169;28;20079;-76
2022/11/27 04:34:22;;;;;;;15.60;5.90;;;6.20;99.90;;;;;;5090246;28;20106;-77
2022/11/27 04:36:48;;;;;;;18.98;6.20;;;6.20;99.90;;;;;;5100640;28;20052;-77
2022/11/27 04:39:14;;;;;;;20.05;7.20;;;6.20;99.90;;;;;;5068411;28;20397;-76
2022/11/27 04:41:39;;;;;;;19.65;6.38;;;6.30;99.90;;;;;;5056914;28;20095;-76
2022/11/27 04:44:05;;;;;;;17.60;7.40;;;6.30;99.90;;;;;;5107655;28;20047;-77
2022/11/27 04:46:31;;;;;;;13.93;6.88;;;6.20;99.90;;;;;;5075190;28;20461;-76
2022/11/27 04:48:57;;;;;;;16.33;6.28;;;6.20;99.90;;;;;;5095152;28;20051;-76
2022/11/27 04:51:23;;;;;;;15.70;6.18;;;6.20;99.90;;;;;;5076997;28;20047;-80
2022/11/27 04:53:48;;;;;;;18.58;6.55;;;6.20;99.90;;;;;;5093900;28;20495;-74
2022/11/27 04:56:14;;;;;;;16.77;7.05;;;6.30;99.90;;;;;;5068682;28;20048;-74
2022/11/27 04:58:40;;;;;;;18.67;7.38;;;6.20;99.90;;;;;;5074690;28;20067;-74
2022/11/27 05:01:07;;;;;;;17.35;8.00;;;6.20;99.90;;;;;;5107333;28;20074;-77
2022/11/27 05:03:33;;;;;;;17.20;7.45;;;6.30;99.90;;;;;;5056903;28;20076;-75
2022/11/27 05:05:59;;;;;;;19.27;7.78;;;6.20;99.90;;;;;;5071729;28;20102;-75
2022/11/27 05:08:25;;;;;;;15.63;7.40;;;6.20;99.90;;;;;;5054555;28;20707;-79
2022/11/27 05:11:15;;;;;;;17.45;7.07;;;6.20;99.90;;;;;;5070317;28;20389;-76
2022/11/27 05:13:41;;;;;;;19.55;6.20;;;6.20;99.90;;;;;;5055036;28;20119;-77
2022/11/27 05:16:07;;;;;;;15.52;6.53;;;6.20;99.90;;;;;;5070266;28;20044;-76
2022/11/27 05:18:33;;;;;;;20.10;6.30;;;6.20;99.90;;;;;;5053231;28;20106;-77
2022/11/27 05:21:03;;;;;;;14.85;6.30;;;6.30;99.90;;;;;;5069617;28;20083;-77
2022/11/27 05:23:28;;;;;;;20.73;6.85;;;6.30;99.90;;;;;;5086756;28;20576;-77
2022/11/27 05:25:55;;;;;;;20.85;6.35;;;6.20;99.90;;;;;;5069724;28;20132;-77
2022/11/27 05:28:21;;;;;;;16.02;6.13;;;6.30;99.90;;;;;;5068236;28;20078;-77
2022/11/27 05:30:48;;;;;;;16.33;7.22;;;6.30;99.90;;;;;;5073068;28;20052;-77
2022/11/27 05:33:15;;;;;;;15.65;6.25;;;6.30;99.90;;;;;;5091606;28;20128;-76
2022/11/27 05:35:41;;;;;;;17.27;6.47;;;6.30;99.90;;;;;;5092610;28;20063;-77
2022/11/27 05:38:08;;;;;;;14.70;6.65;;;6.20;99.90;;;;;;5068782;28;20496;-76
2022/11/27 05:40:34;;;;;;;15.23;6.95;;;6.20;99.90;;;;;;5085217;28;20404;-77
2022/11/27 05:43:00;;;;;;;15.38;5.82;;;6.20;99.90;;;;;;5092869;28;20571;-77
2022/11/27 05:45:26;;;;;;;22.73;5.88;;;6.20;99.90;;;;;;5125709;27;20135;-77
2022/11/27 05:47:51;;;;;;;19.13;7.20;;;6.30;99.90;;;;;;5078531;28;20148;-77
2022/11/27 05:50:17;;;;;;;15.88;6.00;;;6.30;99.90;;;;;;5072828;28;20472;-77
2022/11/27 05:52:43;;;;;;;17.17;6.25;;;6.20;99.90;;;;;;5089277;28;20097;-77
2022/11/27 05:55:08;;;;;;;18.25;6.75;;;6.20;99.90;;;;;;5073129;28;20048;-77
2022/11/27 05:57:34;;;;;;;19.77;6.30;;;6.20;99.90;;;;;;5071656;28;20124;-77
2022/11/27 06:00:00;;;;;;;12.98;6.10;;;6.20;99.90;;;;;;5072361;28;20041;-77
2022/11/27 06:02:26;;;;;;;13.50;5.72;;;6.20;99.90;;;;;;5075346;28;20403;-77
2022/11/27 06:04:51;;;;;;;17.60;6.07;;;6.20;99.90;;;;;;5067860;28;20492;-76
2022/11/27 06:07:18;;;;;;;13.18;6.72;;;6.20;99.90;;;;;;5106110;28;20044;-76
2022/11/27 06:09:43;;;;;;;15.23;6.32;;;6.20;99.90;;;;;;5082594;28;20054;-77
2022/11/27 06:12:09;;;;;;;20.38;6.53;;;6.20;99.90;;;;;;5072361;28;20438;-77
2022/11/27 06:14:35;;;;;;;15.73;6.10;;;6.20;99.90;;;;;;5092526;28;20088;-77
2022/11/27 06:17:02;;;;;;;16.63;6.15;;;6.20;99.90;;;;;;5079493;28;20052;-77
2022/11/27 06:19:28;;;;;;;14.18;5.97;;;6.20;99.90;;;;;;5073281;28;20094;-77
2022/11/27 06:21:54;;;;;;;13.25;5.72;;;6.30;99.90;;;;;;5055424;28;20123;-77
2022/11/27 06:24:20;;;;;;;16.63;5.40;;;6.20;99.90;;;;;;5072514;28;20132;-77
2022/11/27 06:26:46;;;;;;;17.70;6.15;;;6.30;99.90;;;;;;5088589;28;20051;-76
2022/11/27 06:29:11;;;;;;;18.10;5.82;;;6.30;99.90;;;;;;5089213;28;20455;-77
2022/11/27 06:31:38;;;;;;;12.40;5.57;;;6.30;99.90;;;;;;5073149;28;20135;-77
2022/11/27 06:34:04;;;;;;;18.35;5.43;;;6.30;99.90;;;;;;5071798;28;20095;-77
2022/11/27 06:36:33;;;;;;;14.20;5.30;;;6.30;99.90;;;;;;5104978;28;20374;-77
2022/11/27 06:39:00;;;;;;;14.35;4.95;;;6.30;99.90;;;;;;5082208;28;20052;-77
2022/11/27 06:41:27;;;;;;;17.13;5.20;;;6.30;99.90;;;;;;5092391;28;20055;-77
2022/11/27 06:43:54;;;;;;;12.45;4.72;;;6.30;99.90;;;;;;5075469;28;20104;-79
2022/11/27 06:46:22;;;;;;;15.35;5.28;;;6.40;99.90;;;;;;5075540;28;20051;-79
2022/11/27 06:48:49;;;;;;;10.75;4.70;;;6.30;99.90;;;;;;5060424;28;20054;-78
2022/11/27 06:51:17;;;;;;;12.85;4.68;;;6.30;99.90;;;;;;5055533;28;20392;-78
2022/11/27 06:53:43;;;;;;;12.07;4.88;;;6.30;99.90;;;;;;5075173;28;20129;-77
2022/11/27 06:56:12;;;;;;;12.77;4.70;;;6.30;99.90;;;;;;5083782;28;20116;-77
2022/11/27 06:58:38;;;;;;;9.68;4.25;;;6.40;99.90;;;;;;5059251;28;20097;-78
2022/11/27 07:01:08;;;;;;;13.77;4.97;;;6.30;99.90;;;;;;5076684;28;20102;-77
2022/11/27 07:03:35;;;;;;;14.27;5.15;;;6.30;99.90;;;;;;5074472;28;20044;-77
2022/11/27 07:06:05;;;;;;;12.80;5.22;;;6.30;99.90;;;;;;5058610;28;20045;-77
2022/11/27 07:08:32;;;;;;;13.65;5.13;;;6.30;99.90;;;;;;5071584;28;20052;-77
2022/11/27 07:11:10;;;;;;;13.80;5.63;;;6.30;99.90;;;;;;5075796;28;20048;-77
2022/11/27 07:13:36;;;;;;;11.15;5.10;;;6.30;99.90;;;;;;5076967;28;20131;-78
2022/11/27 07:16:05;;;;;;;12.65;4.72;;;6.30;99.90;;;;;;5059071;28;20143;-77
2022/11/27 07:18:34;;;;;;;16.58;5.30;;;6.40;99.90;;;;;;5076975;28;20045;-77
2022/11/27 07:21:00;;;;;;;13.95;4.15;;;6.40;99.90;;;;;;5061552;28;20075;-77
2022/11/27 07:23:26;;;;;;;11.55;4.82;;;6.40;99.90;;;;;;5092388;28;20473;-78
2022/11/27 07:25:51;;;;;;;14.93;4.60;;;6.40;99.90;;;;;;5075293;28;20053;-78
2022/11/27 07:28:17;;;;;;;15.77;4.32;;;6.40;99.90;;;;;;5075607;28;20496;-77
2022/11/27 07:30:43;;;;;;;14.13;4.78;;;6.40;99.90;;;;;;5075062;28;20473;-77
2022/11/27 07:33:09;;;;;;;15.30;4.50;;;6.40;99.90;;;;;;5075566;28;20546;-79
2022/11/27 07:35:34;;;;;;;11.85;4.53;;;6.40;99.90;;;;;;5094784;28;20048;-79
2022/11/27 07:38:00;;;;;;;13.02;4.43;;;6.40;99.90;;;;;;5058269;28;20090;-80
2022/11/27 07:40:26;;;;;;;12.95;4.75;;;6.40;99.90;;;;;;5062411;28;20032;-78
2022/11/27 07:42:51;;;;;;;10.93;4.40;;;6.40;99.90;;;;;;5077365;28;20101;-78
2022/11/27 07:45:17;;;;;;;11.70;4.45;;;6.40;99.90;;;;;;5074449;28;20076;-80
2022/11/27 07:47:43;;;;;;;14.70;4.32;;;6.40;99.90;;;;;;5074627;28;20051;-83
2022/11/27 07:50:09;;;;;;;13.65;4.22;;;6.40;99.90;;;;;;5071746;28;20547;-78
2022/11/27 07:52:36;;;;;;;12.27;3.88;;;6.40;99.90;;;;;;5083087;28;20063;-78
2022/11/27 07:55:04;;;;;;;14.85;4.40;;;6.40;99.90;;;;;;5091807;28;20045;-79
2022/11/27 07:57:30;;;;;;;12.38;4.18;;;6.40;99.90;;;;;;5067153;28;20146;-78
2022/11/27 07:59:55;;;;;;;13.00;4.20;;;6.40;99.90;;;;;;5091744;28;20106;-78
2022/11/27 08:02:21;;;;;;;11.65;4.63;;;6.40;99.90;;;;;;5093739;28;20070;-79
2022/11/27 08:04:47;;;;;;;17.55;5.30;;;6.40;99.90;;;;;;5074388;28;20044;-79
2022/11/27 08:07:12;;;;;;;12.90;4.22;;;6.30;99.90;;;;;;5073558;28;20242;-78
2022/11/27 08:09:38;;;;;;;12.70;4.32;;;6.40;99.90;;;;;;5076000;28;20052;-78
2022/11/27 08:12:05;;;;;;;12.43;4.53;;;6.30;99.90;;;;;;5083776;28;20094;-79
2022/11/27 08:14:31;;;;;;;17.08;4.72;;;6.30;99.90;;;;;;5093239;28;20073;-78
2022/11/27 08:16:57;;;;;;;16.15;5.15;;;6.30;99.90;;;;;;5074881;28;20044;-79
2022/11/27 08:19:23;;;;;;;14.48;5.22;;;6.30;99.90;;;;;;5074441;28;20528;-78
2022/11/27 08:21:49;;;;;;;15.00;5.05;;;6.20;99.90;;;;;;5075304;28;20048;-80
2022/11/27 08:24:15;;;;;;;13.63;5.40;;;6.20;99.90;;;;;;5077378;28;20044;-79
2022/11/27 08:26:40;;;;;;;12.77;4.55;;;6.20;99.90;;;;;;5074009;28;20055;-78
2022/11/27 08:29:08;;;;;;;18.80;4.57;;;6.20;99.90;;;;;;5066361;28;20128;-79
2022/11/27 08:31:34;;;;;;;12.90;4.93;;;6.20;99.90;;;;;;5062887;28;20056;-78
2022/11/27 08:34:00;;;;;;;13.98;4.65;;;6.20;99.90;;;;;;5081003;28;20052;-78
2022/11/27 08:36:26;;;;;;;13.38;4.57;;;6.20;99.90;;;;;;5083942;28;20396;-79
2022/11/27 08:38:52;;;;;;;10.82;5.05;;;6.20;99.90;;;;;;5071800;28;20077;-79
2022/11/27 08:41:17;;;;;;;15.57;5.90;;;6.20;99.90;;;;;;5070898;28;20045;-78
2022/11/27 08:43:43;;;;;;;13.32;4.95;;;6.20;99.90;;;;;;5060632;28;20048;-78
2022/11/27 08:46:09;;;;;;;13.88;4.78;;;6.20;99.90;;;;;;5086789;28;20477;-78
2022/11/27 08:48:35;;;;;;;16.65;6.07;;;6.20;99.90;;;;;;5064455;28;20037;-78
2022/11/27 08:51:06;;;;;;;14.48;5.50;;;6.20;99.90;;;;;;5083692;28;20044;-79
2022/11/27 08:53:32;;;;;;;14.00;5.40;;;6.20;99.90;;;;;;5067324;28;20040;-78
2022/11/27 08:56:13;;;;;;;12.52;5.00;;;6.20;99.90;;;;;;5089907;28;20127;-78
2022/11/27 08:58:39;;;;;;;15.25;4.80;;;6.20;99.90;;;;;;5072181;28;20059;-79
2022/11/27 09:01:20;;;;;;;10.52;4.78;;;6.20;99.90;;;;;;5080942;28;20048;-81
2022/11/27 09:03:47;;;;;;;10.38;4.55;;;6.20;99.90;;;;;;5077098;28;20040;-80
2022/11/27 09:06:20;;;;;;;15.02;5.30;;;6.20;99.90;;;;;;5076625;28;20151;-79
2022/11/27 09:08:46;;;;;;;17.63;5.25;;;6.20;99.90;;;;;;5077913;28;20059;-79
2022/11/27 09:11:14;;;;;;;11.73;4.53;;;6.20;99.90;;;;;;5095362;28;20059;-79
2022/11/27 09:13:40;;;;;;;13.27;4.85;;;6.20;99.90;;;;;;5045937;28;20122;-79
2022/11/27 09:16:10;;;;;;;17.63;5.30;;;6.20;99.90;;;;;;5053990;28;20041;-79
2022/11/27 09:18:36;;;;;;;16.58;4.88;;;6.20;99.90;;;;;;5052653;28;20053;-80
2022/11/27 09:21:05;;;;;;;13.15;5.53;;;6.20;99.90;;;;;;5073003;28;20043;-79
2022/11/27 09:23:31;;;;;;;13.05;5.32;;;6.30;99.90;;;;;;5073091;28;20064;-79
2022/11/27 09:26:01;;;;;;;11.32;4.55;;;6.30;99.90;;;;;;5088294;28;20098;-81
2022/11/27 09:28:27;;;;;;;13.07;5.32;;;6.30;99.90;;;;;;5072758;28;20057;-79
2022/11/27 09:30:55;;;;;;;13.07;4.80;;;6.20;99.90;;;;;;5090394;28;20083;-79
2022/11/27 09:33:21;;;;;;;12.52;5.25;;;6.30;99.90;;;;;;5114158;27;20155;-79
2022/11/27 09:35:47;;;;;;;14.57;5.03;;;6.30;99.90;;;;;;5089779;28;20056;-79
2022/11/27 09:38:13;;;;;;;13.77;5.15;;;6.30;99.90;;;;;;5069098;28;20067;-80
2022/11/27 09:40:46;;;;;;;12.93;5.30;;;6.30;99.90;;;;;;5074956;28;20048;-86
2022/11/27 09:43:12;;;;;;;15.60;4.95;;;6.30;99.90;;;;;;5070198;28;20552;-84
2022/11/27 09:45:43;;;;;;;12.15;4.57;;;6.40;99.90;;;;;;5076113;28;20040;-79
2022/11/27 09:48:15;;;;;;;10.52;4.80;;;6.30;99.90;;;;;;5076358;28;20044;-81
2022/11/27 09:50:49;;;;;;;12.77;5.13;;;6.30;99.90;;;;;;5069249;28;20056;-78
2022/11/27 09:53:27;;;;;;;13.05;5.07;;;6.30;99.90;;;;;;5054649;28;20128;-81
2022/11/27 09:55:55;;;;;;;15.30;5.28;;;6.30;99.90;;;;;;5068087;28;20105;-80
2022/11/27 09:58:41;;;;;;;14.82;5.38;;;6.30;99.90;;;;;;5066983;28;20037;-80
2022/11/27 10:01:19;;;;;;;13.02;5.40;;;6.30;99.90;;;;;;5063437;28;20056;-80
2022/11/27 10:03:46;;;;;;;13.60;4.95;;;6.30;99.90;;;;;;5088468;28;20505;-80
2022/11/27 10:06:27;;;;;;;12.32;5.05;;;6.30;99.90;;;;;;5093905;28;20044;-85
2022/11/27 10:09:11;;;;;;;12.60;4.95;;;6.30;99.90;;;;;;5063354;28;20040;-84
2022/11/27 10:12:04;;;;;;;11.35;5.28;;;6.30;99.90;;;;;;5054855;28;20048;-81
2022/11/27 10:14:45;;;;;;;12.65;6.03;;;6.30;99.90;;;;;;5068405;28;20492;-84
2022/11/27 10:17:16;;;;;;;12.40;5.05;;;6.30;99.90;;;;;;5070484;28;20037;-82
2022/11/27 10:19:45;;;;;;;14.20;5.57;;;6.30;99.90;;;;;;5073617;28;20564;-79
2022/11/27 10:22:39;;;;;;;16.38;5.97;;;6.30;99.90;;;;;;5070482;28;20062;-79
2022/11/27 10:25:33;;;;;;;13.20;5.25;;;6.30;99.90;;;;;;5046373;28;20051;-81
2022/11/27 10:28:39;;;;;;;12.52;5.70;;;6.30;99.90;;;;;;5053136;28;20092;-81
2022/11/27 10:41:42;;;;;;;;;;;11.60;99.90;;;;;;5106975;27;1973510;-69
2022/11/27 10:44:37;;;;;;;;;;;13.40;99.90;;;;;;5117694;27;20292;-69
2022/11/27 10:47:05;;;;;;;;;;;14.60;99.90;;;;;;5111778;27;19931;-70
2022/11/27 10:49:32;;;;;;;;;;;15.40;99.90;;;;;;5130868;27;19927;-72
2022/11/27 10:51:58;;;;;;;;;;;16.00;99.90;;;;;;5137753;27;20327;-73
2022/11/27 10:54:26;;;;;;;;;;;16.50;99.90;;;;;;5152736;27;20046;-77
2022/11/27 10:57:10;;;;;;;;;;;16.90;99.90;;;;;;5131420;27;20025;-74
2022/11/27 10:59:43;;;;;;;;;;;17.20;99.90;;;;;;5169128;27;19927;-71
